sensor_id;sensor_type;location;lat;lon;timestamp;P1;durP1;ratioP1;P2;durP2;ratioP2
77076;SDS011;66003;52.286;104.306;2023-11-21T00:00:40;1.88;;;1.75;;
77076;SDS011;66003;52.286;104.306;2023-11-21T00:03:06;4.22;;;2.22;;
77076;SDS011;66003;52.286;104.306;2023-11-21T00:05:33;5.65;;;3.03;;
77076;SDS011;66003;52.286;104.306;2023-11-21T00:10:26;5.10;;;2.97;;
77076;SDS011;66003;52.286;104.306;2023-11-21T00:12:53;5.03;;;2.67;;
77076;SDS011;66003;52.286;104.306;2023-11-21T00:15:20;7.00;;;3.22;;
77076;SDS011;66003;52.286;104.306;2023-11-21T00:17:47;10.57;;;3.85;;
77076;SDS011;66003;52.286;104.306;2023-11-21T00:20:13;4.05;;;3.20;;
77076;SDS011;66003;52.286;104.306;2023-11-21T00:22:39;9.10;;;3.53;;
77076;SDS011;66003;52.286;104.306;2023-11-21T00:25:06;6.45;;;3.15;;
77076;SDS011;66003;52.286;104.306;2023-11-21T00:27:35;5.38;;;4.45;;
77076;SDS011;66003;52.286;104.306;2023-11-21T00:30:02;4.90;;;3.50;;
77076;SDS011;66003;52.286;104.306;2023-11-21T00:32:32;8.88;;;4.28;;
77076;SDS011;66003;52.286;104.306;2023-11-21T00:34:59;4.90;;;2.33;;
77076;SDS011;66003;52.286;104.306;2023-11-21T00:37:26;7.20;;;4.82;;
77076;SDS011;66003;52.286;104.306;2023-11-21T00:39:52;6.75;;;3.65;;
77076;SDS011;66003;52.286;104.306;2023-11-21T00:42:18;6.28;;;2.42;;
77076;SDS011;66003;52.286;104.306;2023-11-21T00:44:44;8.57;;;4.13;;
77076;SDS011;66003;52.286;104.306;2023-11-21T00:47:11;8.52;;;4.90;;
77076;SDS011;66003;52.286;104.306;2023-11-21T00:49:37;7.88;;;4.70;;
77076;SDS011;66003;52.286;104.306;2023-11-21T00:52:05;8.48;;;5.30;;
77076;SDS011;66003;52.286;104.306;2023-11-21T00:56:59;5.82;;;3.70;;
77076;SDS011;66003;52.286;104.306;2023-11-21T00:59:25;6.93;;;4.18;;
77076;SDS011;66003;52.286;104.306;2023-11-21T01:01:51;9.55;;;2.58;;
77076;SDS011;66003;52.286;104.306;2023-11-21T01:04:17;8.55;;;3.15;;
77076;SDS011;66003;52.286;104.306;2023-11-21T01:06:44;10.55;;;4.00;;
77076;SDS011;66003;52.286;104.306;2023-11-21T01:09:10;11.23;;;3.42;;
77076;SDS011;66003;52.286;104.306;2023-11-21T01:11:38;5.45;;;3.95;;
77076;SDS011;66003;52.286;104.306;2023-11-21T01:14:04;6.25;;;3.97;;
77076;SDS011;66003;52.286;104.306;2023-11-21T01:16:31;5.47;;;3.15;;
77076;SDS011;66003;52.286;104.306;2023-11-21T01:18:58;5.53;;;2.35;;
77076;SDS011;66003;52.286;104.306;2023-11-21T01:21:25;13.30;;;4.68;;
77076;SDS011;66003;52.286;104.306;2023-11-21T01:23:51;14.15;;;5.47;;
77076;SDS011;66003;52.286;104.306;2023-11-21T01:26:18;9.45;;;4.88;;
77076;SDS011;66003;52.286;104.306;2023-11-21T01:28:44;5.75;;;2.42;;
77076;SDS011;66003;52.286;104.306;2023-11-21T01:31:10;11.18;;;5.45;;
77076;SDS011;66003;52.286;104.306;2023-11-21T01:33:36;12.20;;;5.55;;
77076;SDS011;66003;52.286;104.306;2023-11-21T01:36:02;22.48;;;8.32;;
77076;SDS011;66003;52.286;104.306;2023-11-21T01:38:28;14.60;;;8.10;;
77076;SDS011;66003;52.286;104.306;2023-11-21T01:40:54;7.22;;;5.18;;
77076;SDS011;66003;52.286;104.306;2023-11-21T01:43:20;11.85;;;6.03;;
77076;SDS011;66003;52.286;104.306;2023-11-21T01:45:47;9.35;;;5.95;;
77076;SDS011;66003;52.286;104.306;2023-11-21T01:48:13;8.05;;;4.68;;
77076;SDS011;66003;52.286;104.306;2023-11-21T01:50:40;6.35;;;4.75;;
77076;SDS011;66003;52.286;104.306;2023-11-21T01:53:07;3.88;;;3.25;;
77076;SDS011;66003;52.286;104.306;2023-11-21T01:55:33;9.15;;;3.38;;
77076;SDS011;66003;52.286;104.306;2023-11-21T01:58:00;10.27;;;4.20;;
77076;SDS011;66003;52.286;104.306;2023-11-21T02:00:27;13.50;;;5.68;;
77076;SDS011;66003;52.286;104.306;2023-11-21T02:02:53;8.13;;;2.95;;
77076;SDS011;66003;52.286;104.306;2023-11-21T02:05:19;14.82;;;4.97;;
77076;SDS011;66003;52.286;104.306;2023-11-21T02:07:47;10.68;;;4.28;;
77076;SDS011;66003;52.286;104.306;2023-11-21T02:10:16;6.57;;;2.95;;
77076;SDS011;66003;52.286;104.306;2023-11-21T02:12:45;11.10;;;5.22;;
77076;SDS011;66003;52.286;104.306;2023-11-21T02:15:14;9.13;;;3.72;;
77076;SDS011;66003;52.286;104.306;2023-11-21T02:17:44;8.20;;;4.95;;
77076;SDS011;66003;52.286;104.306;2023-11-21T02:20:13;4.93;;;3.55;;
77076;SDS011;66003;52.286;104.306;2023-11-21T02:22:43;7.03;;;3.38;;
77076;SDS011;66003;52.286;104.306;2023-11-21T02:25:24;8.07;;;4.18;;
77076;SDS011;66003;52.286;104.306;2023-11-21T02:27:51;4.05;;;3.03;;
77076;SDS011;66003;52.286;104.306;2023-11-21T02:30:20;3.72;;;3.33;;
77076;SDS011;66003;52.286;104.306;2023-11-21T02:32:47;6.70;;;3.55;;
77076;SDS011;66003;52.286;104.306;2023-11-21T02:35:14;9.10;;;4.65;;
77076;SDS011;66003;52.286;104.306;2023-11-21T02:37:41;4.63;;;3.45;;
77076;SDS011;66003;52.286;104.306;2023-11-21T02:40:08;5.30;;;2.72;;
77076;SDS011;66003;52.286;104.306;2023-11-21T02:42:38;7.20;;;3.90;;
77076;SDS011;66003;52.286;104.306;2023-11-21T02:45:05;6.00;;;1.75;;
77076;SDS011;66003;52.286;104.306;2023-11-21T02:47:34;10.23;;;4.85;;
77076;SDS011;66003;52.286;104.306;2023-11-21T02:50:00;9.73;;;6.00;;
77076;SDS011;66003;52.286;104.306;2023-11-21T02:52:26;13.32;;;4.40;;
77076;SDS011;66003;52.286;104.306;2023-11-21T02:54:52;17.17;;;5.45;;
77076;SDS011;66003;52.286;104.306;2023-11-21T02:57:19;11.55;;;4.13;;
77076;SDS011;66003;52.286;104.306;2023-11-21T02:59:45;6.10;;;4.90;;
77076;SDS011;66003;52.286;104.306;2023-11-21T03:02:11;8.10;;;3.53;;
77076;SDS011;66003;52.286;104.306;2023-11-21T03:04:37;8.75;;;4.15;;
77076;SDS011;66003;52.286;104.306;2023-11-21T03:07:03;7.57;;;5.93;;
77076;SDS011;66003;52.286;104.306;2023-11-21T03:09:30;5.75;;;3.20;;
77076;SDS011;66003;52.286;104.306;2023-11-21T03:11:56;7.40;;;3.75;;
77076;SDS011;66003;52.286;104.306;2023-11-21T03:14:22;1.98;;;1.88;;
77076;SDS011;66003;52.286;104.306;2023-11-21T03:16:49;3.45;;;2.42;;
77076;SDS011;66003;52.286;104.306;2023-11-21T03:19:16;7.05;;;1.98;;
77076;SDS011;66003;52.286;104.306;2023-11-21T03:21:42;5.97;;;3.33;;
77076;SDS011;66003;52.286;104.306;2023-11-21T03:24:09;3.33;;;1.83;;
77076;SDS011;66003;52.286;104.306;2023-11-21T03:26:35;11.05;;;4.00;;
77076;SDS011;66003;52.286;104.306;2023-11-21T03:29:02;4.18;;;3.08;;
77076;SDS011;66003;52.286;104.306;2023-11-21T03:31:30;7.88;;;2.85;;
77076;SDS011;66003;52.286;104.306;2023-11-21T03:33:57;6.78;;;2.97;;
77076;SDS011;66003;52.286;104.306;2023-11-21T03:36:23;5.45;;;3.47;;
77076;SDS011;66003;52.286;104.306;2023-11-21T03:38:50;11.18;;;5.88;;
77076;SDS011;66003;52.286;104.306;2023-11-21T03:41:16;7.93;;;2.95;;
77076;SDS011;66003;52.286;104.306;2023-11-21T03:43:42;9.20;;;4.90;;
77076;SDS011;66003;52.286;104.306;2023-11-21T03:46:09;8.68;;;4.72;;
77076;SDS011;66003;52.286;104.306;2023-11-21T03:48:35;4.53;;;2.72;;
77076;SDS011;66003;52.286;104.306;2023-11-21T03:51:01;5.15;;;3.20;;
77076;SDS011;66003;52.286;104.306;2023-11-21T03:53:28;4.30;;;2.92;;
77076;SDS011;66003;52.286;104.306;2023-11-21T03:55:54;8.30;;;4.72;;
77076;SDS011;66003;52.286;104.306;2023-11-21T03:58:21;7.68;;;5.47;;
77076;SDS011;66003;52.286;104.306;2023-11-21T04:00:47;6.82;;;4.03;;
77076;SDS011;66003;52.286;104.306;2023-11-21T04:06:02;6.07;;;3.90;;
77076;SDS011;66003;52.286;104.306;2023-11-21T04:08:28;4.40;;;2.83;;
77076;SDS011;66003;52.286;104.306;2023-11-21T04:10:54;3.65;;;1.08;;
77076;SDS011;66003;52.286;104.306;2023-11-21T04:13:21;2.60;;;2.03;;
77076;SDS011;66003;52.286;104.306;2023-11-21T04:15:47;4.70;;;2.38;;
77076;SDS011;66003;52.286;104.306;2023-11-21T04:18:13;7.22;;;3.42;;
77076;SDS011;66003;52.286;104.306;2023-11-21T04:20:39;3.50;;;2.25;;
77076;SDS011;66003;52.286;104.306;2023-11-21T04:23:06;1.95;;;1.70;;
77076;SDS011;66003;52.286;104.306;2023-11-21T04:25:41;2.63;;;1.90;;
77076;SDS011;66003;52.286;104.306;2023-11-21T04:28:09;1.88;;;1.25;;
77076;SDS011;66003;52.286;104.306;2023-11-21T04:30:37;2.72;;;2.00;;
77076;SDS011;66003;52.286;104.306;2023-11-21T04:33:05;2.33;;;2.10;;
77076;SDS011;66003;52.286;104.306;2023-11-21T04:35:31;4.00;;;1.05;;
77076;SDS011;66003;52.286;104.306;2023-11-21T04:37:57;7.07;;;3.33;;
77076;SDS011;66003;52.286;104.306;2023-11-21T04:40:23;14.30;;;5.57;;
77076;SDS011;66003;52.286;104.306;2023-11-21T04:42:49;6.18;;;3.08;;
77076;SDS011;66003;52.286;104.306;2023-11-21T04:45:15;6.45;;;5.53;;
77076;SDS011;66003;52.286;104.306;2023-11-21T04:47:42;8.75;;;5.07;;
77076;SDS011;66003;52.286;104.306;2023-11-21T04:50:13;6.47;;;3.45;;
77076;SDS011;66003;52.286;104.306;2023-11-21T04:52:40;3.92;;;2.88;;
77076;SDS011;66003;52.286;104.306;2023-11-21T04:55:07;12.13;;;4.47;;
77076;SDS011;66003;52.286;104.306;2023-11-21T04:57:35;6.22;;;2.85;;
77076;SDS011;66003;52.286;104.306;2023-11-21T05:00:02;3.35;;;2.40;;
77076;SDS011;66003;52.286;104.306;2023-11-21T05:02:32;5.07;;;2.28;;
77076;SDS011;66003;52.286;104.306;2023-11-21T05:05:00;5.00;;;2.47;;
77076;SDS011;66003;52.286;104.306;2023-11-21T05:07:34;5.63;;;3.28;;
77076;SDS011;66003;52.286;104.306;2023-11-21T05:10:09;3.80;;;1.63;;
77076;SDS011;66003;52.286;104.306;2023-11-21T05:12:40;3.55;;;2.22;;
77076;SDS011;66003;52.286;104.306;2023-11-21T05:15:14;3.42;;;1.75;;
77076;SDS011;66003;52.286;104.306;2023-11-21T05:17:41;3.97;;;3.55;;
77076;SDS011;66003;52.286;104.306;2023-11-21T05:20:17;2.55;;;1.98;;
77076;SDS011;66003;52.286;104.306;2023-11-21T05:22:47;2.28;;;1.88;;
77076;SDS011;66003;52.286;104.306;2023-11-21T05:25:18;6.40;;;2.25;;
77076;SDS011;66003;52.286;104.306;2023-11-21T05:27:49;2.65;;;2.25;;
77076;SDS011;66003;52.286;104.306;2023-11-21T05:30:16;4.22;;;1.80;;
77076;SDS011;66003;52.286;104.306;2023-11-21T05:32:49;7.47;;;2.13;;
77076;SDS011;66003;52.286;104.306;2023-11-21T05:35:16;1.95;;;1.63;;
77076;SDS011;66003;52.286;104.306;2023-11-21T05:37:44;3.20;;;2.85;;
77076;SDS011;66003;52.286;104.306;2023-11-21T05:40:13;3.40;;;2.40;;
77076;SDS011;66003;52.286;104.306;2023-11-21T05:42:40;3.15;;;2.55;;
77076;SDS011;66003;52.286;104.306;2023-11-21T05:45:06;2.75;;;2.25;;
77076;SDS011;66003;52.286;104.306;2023-11-21T05:47:40;4.90;;;2.30;;
77076;SDS011;66003;52.286;104.306;2023-11-21T05:50:12;2.30;;;0.77;;
77076;SDS011;66003;52.286;104.306;2023-11-21T05:52:46;3.17;;;1.75;;
77076;SDS011;66003;52.286;104.306;2023-11-21T05:55:13;1.95;;;1.70;;
77076;SDS011;66003;52.286;104.306;2023-11-21T05:57:42;1.55;;;1.30;;
77076;SDS011;66003;52.286;104.306;2023-11-21T06:00:10;2.75;;;1.83;;
77076;SDS011;66003;52.286;104.306;2023-11-21T06:02:46;4.78;;;0.88;;
77076;SDS011;66003;52.286;104.306;2023-11-21T06:05:23;1.92;;;1.42;;
77076;SDS011;66003;52.286;104.306;2023-11-21T06:07:56;2.00;;;0.40;;
77076;SDS011;66003;52.286;104.306;2023-11-21T06:10:25;2.15;;;2.05;;
77076;SDS011;66003;52.286;104.306;2023-11-21T06:12:54;2.97;;;0.40;;
77076;SDS011;66003;52.286;104.306;2023-11-21T06:15:21;1.27;;;1.15;;
77076;SDS011;66003;52.286;104.306;2023-11-21T06:17:49;1.13;;;1.13;;
77076;SDS011;66003;52.286;104.306;2023-11-21T06:20:18;1.63;;;1.15;;
77076;SDS011;66003;52.286;104.306;2023-11-21T06:22:53;1.92;;;1.45;;
77076;SDS011;66003;52.286;104.306;2023-11-21T06:25:31;2.15;;;0.25;;
77076;SDS011;66003;52.286;104.306;2023-11-21T06:28:02;2.45;;;2.35;;
77076;SDS011;66003;52.286;104.306;2023-11-21T06:30:39;1.92;;;1.75;;
77076;SDS011;66003;52.286;104.306;2023-11-21T06:33:13;1.85;;;1.63;;
77076;SDS011;66003;52.286;104.306;2023-11-21T06:35:41;1.15;;;0.47;;
77076;SDS011;66003;52.286;104.306;2023-11-21T06:38:07;2.30;;;2.20;;
77076;SDS011;66003;52.286;104.306;2023-11-21T06:40:48;2.08;;;1.85;;
77076;SDS011;66003;52.286;104.306;2023-11-21T06:43:20;1.80;;;1.70;;
77076;SDS011;66003;52.286;104.306;2023-11-21T06:48:22;1.15;;;1.10;;
77076;SDS011;66003;52.286;104.306;2023-11-21T06:50:48;2.67;;;2.47;;
77076;SDS011;66003;52.286;104.306;2023-11-21T06:53:15;6.03;;;3.45;;
77076;SDS011;66003;52.286;104.306;2023-11-21T06:55:41;3.10;;;1.95;;
77076;SDS011;66003;52.286;104.306;2023-11-21T06:58:07;2.83;;;2.58;;
77076;SDS011;66003;52.286;104.306;2023-11-21T07:00:33;2.65;;;2.17;;
77076;SDS011;66003;52.286;104.306;2023-11-21T07:02:59;3.83;;;2.88;;
77076;SDS011;66003;52.286;104.306;2023-11-21T07:05:26;4.35;;;3.08;;
77076;SDS011;66003;52.286;104.306;2023-11-21T07:07:52;8.77;;;4.05;;
77076;SDS011;66003;52.286;104.306;2023-11-21T07:10:19;3.97;;;3.20;;
77076;SDS011;66003;52.286;104.306;2023-11-21T07:12:45;4.82;;;3.63;;
77076;SDS011;66003;52.286;104.306;2023-11-21T07:15:11;3.65;;;2.95;;
77076;SDS011;66003;52.286;104.306;2023-11-21T07:17:38;6.65;;;3.65;;
77076;SDS011;66003;52.286;104.306;2023-11-21T07:20:05;2.95;;;2.78;;
77076;SDS011;66003;52.286;104.306;2023-11-21T07:22:32;2.83;;;2.47;;
77076;SDS011;66003;52.286;104.306;2023-11-21T07:24:58;4.13;;;3.10;;
77076;SDS011;66003;52.286;104.306;2023-11-21T07:27:24;6.70;;;3.15;;
77076;SDS011;66003;52.286;104.306;2023-11-21T07:29:50;6.13;;;1.83;;
77076;SDS011;66003;52.286;104.306;2023-11-21T07:32:16;11.00;;;5.13;;
77076;SDS011;66003;52.286;104.306;2023-11-21T07:34:42;4.40;;;2.13;;
77076;SDS011;66003;52.286;104.306;2023-11-21T07:37:08;4.07;;;3.38;;
77076;SDS011;66003;52.286;104.306;2023-11-21T07:39:35;3.08;;;2.78;;
77076;SDS011;66003;52.286;104.306;2023-11-21T07:42:02;4.03;;;2.50;;
77076;SDS011;66003;52.286;104.306;2023-11-21T07:44:28;5.57;;;2.45;;
77076;SDS011;66003;52.286;104.306;2023-11-21T07:46:54;1.85;;;1.60;;
77076;SDS011;66003;52.286;104.306;2023-11-21T07:49:24;2.22;;;1.67;;
77076;SDS011;66003;52.286;104.306;2023-11-21T07:51:52;1.80;;;1.10;;
77076;SDS011;66003;52.286;104.306;2023-11-21T07:54:18;2.83;;;2.25;;
77076;SDS011;66003;52.286;104.306;2023-11-21T07:56:44;2.08;;;1.85;;
77076;SDS011;66003;52.286;104.306;2023-11-21T07:59:10;2.22;;;0.77;;
77076;SDS011;66003;52.286;104.306;2023-11-21T08:01:37;1.48;;;1.35;;
77076;SDS011;66003;52.286;104.306;2023-11-21T08:04:06;3.28;;;3.03;;
77076;SDS011;66003;52.286;104.306;2023-11-21T08:06:32;1.88;;;1.77;;
77076;SDS011;66003;52.286;104.306;2023-11-21T08:08:58;2.78;;;2.58;;
77076;SDS011;66003;52.286;104.306;2023-11-21T08:11:25;2.30;;;2.13;;
77076;SDS011;66003;52.286;104.306;2023-11-21T08:13:52;1.85;;;1.67;;
77076;SDS011;66003;52.286;104.306;2023-11-21T08:16:19;1.65;;;1.55;;
77076;SDS011;66003;52.286;104.306;2023-11-21T08:18:46;2.63;;;2.33;;
77076;SDS011;66003;52.286;104.306;2023-11-21T08:21:12;1.42;;;0.75;;
77076;SDS011;66003;52.286;104.306;2023-11-21T08:23:39;2.20;;;1.88;;
77076;SDS011;66003;52.286;104.306;2023-11-21T08:26:06;4.30;;;3.90;;
77076;SDS011;66003;52.286;104.306;2023-11-21T08:28:32;2.38;;;2.22;;
77076;SDS011;66003;52.286;104.306;2023-11-21T08:30:58;2.72;;;2.55;;
77076;SDS011;66003;52.286;104.306;2023-11-21T08:33:26;2.83;;;0.70;;
77076;SDS011;66003;52.286;104.306;2023-11-21T08:35:52;2.47;;;2.28;;
77076;SDS011;66003;52.286;104.306;2023-11-21T08:38:18;4.78;;;4.38;;
77076;SDS011;66003;52.286;104.306;2023-11-21T08:40:45;4.25;;;3.55;;
77076;SDS011;66003;52.286;104.306;2023-11-21T08:43:11;6.55;;;2.13;;
77076;SDS011;66003;52.286;104.306;2023-11-21T08:45:37;10.57;;;3.95;;
77076;SDS011;66003;52.286;104.306;2023-11-21T08:48:03;9.00;;;5.15;;
77076;SDS011;66003;52.286;104.306;2023-11-21T08:50:30;4.70;;;3.00;;
77076;SDS011;66003;52.286;104.306;2023-11-21T08:52:57;3.38;;;2.35;;
77076;SDS011;66003;52.286;104.306;2023-11-21T08:55:23;2.15;;;2.05;;
77076;SDS011;66003;52.286;104.306;2023-11-21T08:57:49;5.45;;;2.95;;
77076;SDS011;66003;52.286;104.306;2023-11-21T09:00:16;6.20;;;1.20;;
77076;SDS011;66003;52.286;104.306;2023-11-21T09:02:43;6.80;;;3.15;;
77076;SDS011;66003;52.286;104.306;2023-11-21T09:05:12;5.70;;;3.42;;
77076;SDS011;66003;52.286;104.306;2023-11-21T09:07:40;3.38;;;2.95;;
77076;SDS011;66003;52.286;104.306;2023-11-21T09:10:08;5.15;;;1.92;;
77076;SDS011;66003;52.286;104.306;2023-11-21T09:12:36;2.03;;;1.92;;
77076;SDS011;66003;52.286;104.306;2023-11-21T09:15:04;2.58;;;2.28;;
77076;SDS011;66003;52.286;104.306;2023-11-21T09:19:58;3.13;;;2.55;;
77076;SDS011;66003;52.286;104.306;2023-11-21T09:22:24;3.40;;;2.20;;
77076;SDS011;66003;52.286;104.306;2023-11-21T09:24:51;1.30;;;0.93;;
77076;SDS011;66003;52.286;104.306;2023-11-21T09:27:17;2.47;;;2.38;;
77076;SDS011;66003;52.286;104.306;2023-11-21T09:29:44;1.88;;;1.77;;
77076;SDS011;66003;52.286;104.306;2023-11-21T09:32:13;2.67;;;1.92;;
77076;SDS011;66003;52.286;104.306;2023-11-21T09:34:41;4.18;;;3.78;;
77076;SDS011;66003;52.286;104.306;2023-11-21T09:37:08;3.03;;;2.75;;
77076;SDS011;66003;52.286;104.306;2023-11-21T09:39:35;4.75;;;2.63;;
77076;SDS011;66003;52.286;104.306;2023-11-21T09:42:08;3.10;;;2.80;;
77076;SDS011;66003;52.286;104.306;2023-11-21T09:45:05;2.90;;;2.70;;
77076;SDS011;66003;52.286;104.306;2023-11-21T09:47:41;3.75;;;3.20;;
77076;SDS011;66003;52.286;104.306;2023-11-21T09:50:08;3.03;;;2.63;;
77076;SDS011;66003;52.286;104.306;2023-11-21T09:52:54;7.25;;;2.75;;
77076;SDS011;66003;52.286;104.306;2023-11-21T09:55:23;2.00;;;1.90;;
77076;SDS011;66003;52.286;104.306;2023-11-21T09:57:52;15.00;;;3.00;;
77076;SDS011;66003;52.286;104.306;2023-11-21T10:00:22;3.05;;;2.75;;
77076;SDS011;66003;52.286;104.306;2023-11-21T10:02:52;2.28;;;2.08;;
77076;SDS011;66003;52.286;104.306;2023-11-21T10:05:19;3.53;;;2.83;;
77076;SDS011;66003;52.286;104.306;2023-11-21T10:07:48;3.35;;;2.53;;
77076;SDS011;66003;52.286;104.306;2023-11-21T10:10:18;3.10;;;2.35;;
77076;SDS011;66003;52.286;104.306;2023-11-21T10:12:53;7.18;;;3.35;;
77076;SDS011;66003;52.286;104.306;2023-11-21T10:15:22;2.35;;;2.08;;
77076;SDS011;66003;52.286;104.306;2023-11-21T10:17:50;2.72;;;2.60;;
77076;SDS011;66003;52.286;104.306;2023-11-21T10:20:25;3.08;;;2.85;;
77076;SDS011;66003;52.286;104.306;2023-11-21T10:22:52;3.80;;;2.28;;
77076;SDS011;66003;52.286;104.306;2023-11-21T10:25:18;2.00;;;1.80;;
77076;SDS011;66003;52.286;104.306;2023-11-21T10:27:47;1.48;;;1.45;;
77076;SDS011;66003;52.286;104.306;2023-11-21T10:30:16;4.88;;;2.20;;
77076;SDS011;66003;52.286;104.306;2023-11-21T10:32:43;2.33;;;1.80;;
77076;SDS011;66003;52.286;104.306;2023-11-21T10:35:10;1.52;;;1.52;;
77076;SDS011;66003;52.286;104.306;2023-11-21T10:37:37;3.65;;;3.45;;
77076;SDS011;66003;52.286;104.306;2023-11-21T10:40:09;3.47;;;3.00;;
77076;SDS011;66003;52.286;104.306;2023-11-21T10:42:39;2.80;;;2.53;;
77076;SDS011;66003;52.286;104.306;2023-11-21T10:45:06;0.65;;;0.40;;
77076;SDS011;66003;52.286;104.306;2023-11-21T10:47:43;3.50;;;3.13;;
77076;SDS011;66003;52.286;104.306;2023-11-21T10:50:10;3.15;;;2.05;;
77076;SDS011;66003;52.286;104.306;2023-11-21T10:52:39;5.70;;;3.72;;
77076;SDS011;66003;52.286;104.306;2023-11-21T10:55:16;3.10;;;2.08;;
77076;SDS011;66003;52.286;104.306;2023-11-21T10:57:44;5.57;;;3.22;;
77076;SDS011;66003;52.286;104.306;2023-11-21T11:00:16;2.28;;;2.15;;
77076;SDS011;66003;52.286;104.306;2023-11-21T11:02:50;3.60;;;2.72;;
77076;SDS011;66003;52.286;104.306;2023-11-21T11:05:19;4.30;;;2.72;;
77076;SDS011;66003;52.286;104.306;2023-11-21T11:07:50;5.10;;;3.80;;
77076;SDS011;66003;52.286;104.306;2023-11-21T11:10:23;2.85;;;2.65;;
77076;SDS011;66003;52.286;104.306;2023-11-21T11:12:51;2.25;;;2.15;;
77076;SDS011;66003;52.286;104.306;2023-11-21T11:15:19;4.00;;;3.65;;
77076;SDS011;66003;52.286;104.306;2023-11-21T11:17:46;3.90;;;3.25;;
77076;SDS011;66003;52.286;104.306;2023-11-21T11:20:14;1.77;;;1.67;;
77076;SDS011;66003;52.286;104.306;2023-11-21T11:25:30;1.30;;;1.30;;
77076;SDS011;66003;52.286;104.306;2023-11-21T11:28:19;2.25;;;2.05;;
77076;SDS011;66003;52.286;104.306;2023-11-21T11:34:12;4.03;;;3.22;;
77076;SDS011;66003;52.286;104.306;2023-11-21T11:39:30;2.00;;;1.23;;
77076;SDS011;66003;52.286;104.306;2023-11-21T11:42:01;1.77;;;0.98;;
77076;SDS011;66003;52.286;104.306;2023-11-21T11:52:46;3.65;;;2.45;;
77076;SDS011;66003;52.286;104.306;2023-11-21T11:55:19;1.83;;;1.73;;
77076;SDS011;66003;52.286;104.306;2023-11-21T12:00:21;4.70;;;2.88;;
77076;SDS011;66003;52.286;104.306;2023-11-21T12:02:52;2.83;;;1.17;;
77076;SDS011;66003;52.286;104.306;2023-11-21T12:05:22;1.80;;;1.70;;
77076;SDS011;66003;52.286;104.306;2023-11-21T12:07:52;2.85;;;2.60;;
77076;SDS011;66003;52.286;104.306;2023-11-21T12:10:22;2.28;;;1.65;;
77076;SDS011;66003;52.286;104.306;2023-11-21T12:12:56;3.00;;;2.70;;
77076;SDS011;66003;52.286;104.306;2023-11-21T12:15:23;1.77;;;1.77;;
77076;SDS011;66003;52.286;104.306;2023-11-21T12:17:51;3.10;;;2.60;;
77076;SDS011;66003;52.286;104.306;2023-11-21T12:20:19;1.27;;;1.17;;
77076;SDS011;66003;52.286;104.306;2023-11-21T12:25:22;1.10;;;1.00;;
77076;SDS011;66003;52.286;104.306;2023-11-21T12:27:52;1.85;;;1.75;;
77076;SDS011;66003;52.286;104.306;2023-11-21T12:30:19;5.85;;;2.65;;
77076;SDS011;66003;52.286;104.306;2023-11-21T12:32:51;4.20;;;3.15;;
77076;SDS011;66003;52.286;104.306;2023-11-21T12:35:19;2.28;;;2.17;;
77076;SDS011;66003;52.286;104.306;2023-11-21T12:40:13;2.45;;;2.13;;
77076;SDS011;66003;52.286;104.306;2023-11-21T12:42:45;1.85;;;1.80;;
77076;SDS011;66003;52.286;104.306;2023-11-21T12:47:44;3.72;;;2.25;;
77076;SDS011;66003;52.286;104.306;2023-11-21T12:50:12;1.83;;;1.73;;
77076;SDS011;66003;52.286;104.306;2023-11-21T12:52:42;2.50;;;2.10;;
77076;SDS011;66003;52.286;104.306;2023-11-21T12:55:13;1.85;;;0.70;;
77076;SDS011;66003;52.286;104.306;2023-11-21T12:57:45;1.95;;;1.83;;
77076;SDS011;66003;52.286;104.306;2023-11-21T13:00:12;1.75;;;1.65;;
77076;SDS011;66003;52.286;104.306;2023-11-21T13:02:51;2.63;;;2.42;;
77076;SDS011;66003;52.286;104.306;2023-11-21T13:05:29;1.23;;;1.13;;
77076;SDS011;66003;52.286;104.306;2023-11-21T13:08:01;3.08;;;2.45;;
77076;SDS011;66003;52.286;104.306;2023-11-21T13:10:30;3.08;;;2.88;;
77076;SDS011;66003;52.286;104.306;2023-11-21T13:12:58;2.55;;;0.43;;
77076;SDS011;66003;52.286;104.306;2023-11-21T13:17:56;2.30;;;2.17;;
77076;SDS011;66003;52.286;104.306;2023-11-21T13:20:23;2.45;;;2.35;;
77076;SDS011;66003;52.286;104.306;2023-11-21T13:22:51;4.32;;;3.75;;
77076;SDS011;66003;52.286;104.306;2023-11-21T13:25:28;1.92;;;0.93;;
77076;SDS011;66003;52.286;104.306;2023-11-21T13:27:57;2.75;;;1.10;;
77076;SDS011;66003;52.286;104.306;2023-11-21T13:30:24;3.53;;;2.75;;
77076;SDS011;66003;52.286;104.306;2023-11-21T13:32:59;2.55;;;2.40;;
77076;SDS011;66003;52.286;104.306;2023-11-21T13:35:34;2.00;;;1.85;;
77076;SDS011;66003;52.286;104.306;2023-11-21T13:38:08;3.72;;;2.45;;
77076;SDS011;66003;52.286;104.306;2023-11-21T13:40:38;2.53;;;2.38;;
77076;SDS011;66003;52.286;104.306;2023-11-21T13:43:10;2.95;;;2.75;;
77076;SDS011;66003;52.286;104.306;2023-11-21T13:45:37;1.83;;;1.83;;
77076;SDS011;66003;52.286;104.306;2023-11-21T13:48:07;4.18;;;3.97;;
77076;SDS011;66003;52.286;104.306;2023-11-21T13:50:44;3.28;;;1.42;;
77076;SDS011;66003;52.286;104.306;2023-11-21T13:53:23;2.05;;;1.95;;
77076;SDS011;66003;52.286;104.306;2023-11-21T13:55:50;2.28;;;2.08;;
77076;SDS011;66003;52.286;104.306;2023-11-21T13:58:20;2.55;;;2.45;;
77076;SDS011;66003;52.286;104.306;2023-11-21T14:01:05;2.35;;;2.13;;
77076;SDS011;66003;52.286;104.306;2023-11-21T14:03:38;3.60;;;3.13;;
77076;SDS011;66003;52.286;104.306;2023-11-21T14:06:17;2.17;;;1.98;;
77076;SDS011;66003;52.286;104.306;2023-11-21T14:08:50;3.03;;;1.40;;
77076;SDS011;66003;52.286;104.306;2023-11-21T14:11:16;1.90;;;0.55;;
77076;SDS011;66003;52.286;104.306;2023-11-21T14:13:44;3.25;;;3.05;;
77076;SDS011;66003;52.286;104.306;2023-11-21T14:16:14;1.85;;;0.50;;
77076;SDS011;66003;52.286;104.306;2023-11-21T14:18:42;3.00;;;2.22;;
77076;SDS011;66003;52.286;104.306;2023-11-21T14:21:21;2.80;;;2.70;;
77076;SDS011;66003;52.286;104.306;2023-11-21T14:23:47;1.88;;;1.77;;
77076;SDS011;66003;52.286;104.306;2023-11-21T14:26:14;2.05;;;2.00;;
77076;SDS011;66003;52.286;104.306;2023-11-21T14:28:41;2.35;;;2.25;;
77076;SDS011;66003;52.286;104.306;2023-11-21T14:31:08;2.42;;;2.28;;
77076;SDS011;66003;52.286;104.306;2023-11-21T14:33:40;2.75;;;2.65;;
77076;SDS011;66003;52.286;104.306;2023-11-21T14:36:07;5.82;;;4.53;;
77076;SDS011;66003;52.286;104.306;2023-11-21T14:38:36;2.97;;;2.80;;
77076;SDS011;66003;52.286;104.306;2023-11-21T14:41:06;2.53;;;0.90;;
77076;SDS011;66003;52.286;104.306;2023-11-21T14:43:37;3.00;;;2.72;;
77076;SDS011;66003;52.286;104.306;2023-11-21T14:46:05;5.70;;;3.03;;
77076;SDS011;66003;52.286;104.306;2023-11-21T14:48:36;5.30;;;3.22;;
77076;SDS011;66003;52.286;104.306;2023-11-21T14:51:09;2.38;;;2.17;;
77076;SDS011;66003;52.286;104.306;2023-11-21T14:53:38;1.38;;;1.38;;
77076;SDS011;66003;52.286;104.306;2023-11-21T14:56:33;2.83;;;2.63;;
77076;SDS011;66003;52.286;104.306;2023-11-21T14:59:01;3.78;;;2.70;;
77076;SDS011;66003;52.286;104.306;2023-11-21T15:01:42;1.30;;;1.30;;
77076;SDS011;66003;52.286;104.306;2023-11-21T15:04:12;3.10;;;2.90;;
77076;SDS011;66003;52.286;104.306;2023-11-21T15:06:49;2.17;;;1.77;;
77076;SDS011;66003;52.286;104.306;2023-11-21T15:09:18;1.88;;;1.75;;
77076;SDS011;66003;52.286;104.306;2023-11-21T15:11:44;3.88;;;3.38;;